createdAt,value
2017-05-28T14:44:51.364Z,41.00
2017-05-28T14:47:18.577Z,40.70
2017-05-28T14:49:46.020Z,41.10
2017-05-28T14:52:13.237Z,40.20
2017-05-28T14:54:40.462Z,40.90
2017-05-28T14:57:07.620Z,40.10
2017-05-28T14:59:34.836Z,40.60
2017-05-28T15:02:02.082Z,40.00
2017-05-28T15:04:29.343Z,40.10
2017-05-28T15:06:57.460Z,40.60
2017-05-28T15:09:24.638Z,41.50
2017-05-28T15:11:52.016Z,41.40
2017-05-28T15:14:19.228Z,41.40
2017-05-28T15:16:46.520Z,40.90
2017-05-28T15:19:14.079Z,40.40
2017-05-28T15:21:41.388Z,39.90
2017-05-28T15:24:08.640Z,39.90
2017-05-28T15:26:35.919Z,39.50
2017-05-28T15:29:03.104Z,38.90
2017-05-28T15:31:30.305Z,38.70
2017-05-28T15:33:57.576Z,37.70
2017-05-28T15:36:24.781Z,37.30
2017-05-28T15:38:52.865Z,37.00
2017-05-28T15:41:20.105Z,36.80
2017-05-28T15:43:47.329Z,36.00
2017-05-28T15:46:14.516Z,35.50
2017-05-28T15:48:41.780Z,34.40
2017-05-28T15:51:09.015Z,34.10
2017-05-28T15:53:36.549Z,33.80
2017-05-28T15:56:03.798Z,33.60
2017-05-28T15:58:30.979Z,32.10
2017-05-28T16:00:58.192Z,31.20
2017-05-28T16:03:25.399Z,30.50
2017-05-28T16:05:53.879Z,30.30
2017-05-28T16:08:21.089Z,30.50
2017-05-28T16:10:48.440Z,30.80
2017-05-28T16:13:15.946Z,31.00
2017-05-28T16:15:43.152Z,30.60
2017-05-28T16:18:10.430Z,29.70
2017-05-28T16:20:37.679Z,29.40
2017-05-28T16:23:04.889Z,29.10
2017-05-28T16:25:32.149Z,29.10
2017-05-28T16:27:59.329Z,29.00
2017-05-28T16:30:26.531Z,28.90
2017-05-28T16:32:53.997Z,29.30
2017-05-28T16:35:21.283Z,29.70
2017-05-28T16:37:48.749Z,29.80
2017-05-28T16:40:16.077Z,29.70
2017-05-28T16:42:43.304Z,29.60
2017-05-28T16:45:10.562Z,29.40
2017-05-28T16:47:37.801Z,29.30
2017-05-28T16:50:05.013Z,29.60
2017-05-28T16:52:32.391Z,29.80
2017-05-28T16:54:59.629Z,29.80
2017-05-28T16:57:26.874Z,29.50
2017-05-28T16:59:54.161Z,29.10
2017-05-28T17:02:21.322Z,28.90
2017-05-28T17:04:48.699Z,28.90
2017-05-28T17:07:15.956Z,28.90
2017-05-28T17:09:43.159Z,28.70
2017-05-28T17:12:10.437Z,28.50
2017-05-28T17:14:37.609Z,28.30
2017-05-28T17:17:04.872Z,28.30
2017-05-28T17:19:32.142Z,28.30
2017-05-28T17:21:59.389Z,28.10
2017-05-28T17:24:27.274Z,28.00
2017-05-28T17:26:54.545Z,28.10
2017-05-28T17:29:21.779Z,28.00
2017-05-28T17:31:49.209Z,27.80
2017-05-28T17:34:16.458Z,27.70
2017-05-28T17:36:43.672Z,27.60
2017-05-28T17:39:10.914Z,27.60
2017-05-28T17:41:38.143Z,27.60
2017-05-28T17:44:05.393Z,27.60
2017-05-28T17:46:32.732Z,27.60
2017-05-28T17:49:00.043Z,27.60
2017-05-28T17:51:27.304Z,27.50
2017-05-28T17:53:54.539Z,27.40
2017-05-28T17:56:21.711Z,27.30
2017-05-28T17:58:49.195Z,27.30
2017-05-28T18:01:16.392Z,27.20
2017-05-28T18:03:43.620Z,27.10
2017-05-28T18:06:10.828Z,27.10
2017-05-28T18:08:38.109Z,27.00
2017-05-28T18:11:05.316Z,26.90
2017-05-28T18:13:32.573Z,26.80
2017-05-28T18:15:59.891Z,26.60
2017-05-28T18:18:27.146Z,26.50
2017-05-28T18:20:54.484Z,26.40
2017-05-28T18:23:21.755Z,26.40
2017-05-28T18:25:49.030Z,26.30
2017-05-28T18:28:16.268Z,26.30
2017-05-28T18:30:43.516Z,26.30
2017-05-28T18:33:10.946Z,26.10
2017-05-28T18:35:38.145Z,26.00
2017-05-28T18:38:05.415Z,26.00
2017-05-28T18:40:32.691Z,25.90
2017-05-28T18:42:59.877Z,25.90
2017-05-28T18:45:27.908Z,25.90
2017-05-28T18:47:55.129Z,25.90
2017-05-28T18:50:22.503Z,25.80
2017-05-28T18:52:49.718Z,25.70
2017-05-28T18:55:17.068Z,25.70
2017-05-28T18:57:44.603Z,25.70
2017-05-28T19:00:11.780Z,25.70
2017-05-28T19:02:38.949Z,25.50
2017-05-28T19:05:06.250Z,25.30
2017-05-28T19:07:33.467Z,25.20
2017-05-28T19:10:00.664Z,25.00
2017-05-28T19:12:27.917Z,24.80
2017-05-28T19:14:55.116Z,24.70
2017-05-28T19:17:22.521Z,24.70
2017-05-28T19:19:49.724Z,24.70
2017-05-28T19:22:16.948Z,24.60
2017-05-28T19:24:44.370Z,24.40
2017-05-28T19:27:11.626Z,24.30
2017-05-28T19:29:38.802Z,24.30
2017-05-28T19:32:06.101Z,24.10
2017-05-28T19:34:33.390Z,24.00
2017-05-28T19:37:00.632Z,23.70
2017-05-28T19:39:27.905Z,23.40
2017-05-28T19:41:55.091Z,23.00
2017-05-28T19:44:22.410Z,22.80
2017-05-28T19:46:49.671Z,22.90
2017-05-28T19:49:16.935Z,23.00
2017-05-28T19:51:44.209Z,23.00
2017-05-28T19:54:11.480Z,22.80
2017-05-28T19:56:38.794Z,22.70
2017-05-28T19:59:06.104Z,22.60
2017-05-28T20:01:33.391Z,22.30
2017-05-28T20:04:00.656Z,22.10
2017-05-28T20:06:27.929Z,22.10
2017-05-28T20:08:55.293Z,22.00
2017-05-28T20:11:22.637Z,21.80
2017-05-28T20:13:49.915Z,21.60
2017-05-28T20:16:17.085Z,21.60
2017-05-28T20:18:44.487Z,21.60
2017-05-28T20:21:11.692Z,21.60
2017-05-28T20:23:38.936Z,21.50
2017-05-28T20:26:06.156Z,21.50
2017-05-28T20:28:33.435Z,21.40
2017-05-28T20:31:00.707Z,21.30
2017-05-28T20:33:27.936Z,21.10
2017-05-28T20:35:54.518Z,21.10
2017-05-28T20:38:21.815Z,21.00
2017-05-28T20:40:49.115Z,20.90
2017-05-28T20:43:15.667Z,21.00
2017-05-28T20:45:42.950Z,20.80
2017-05-28T20:48:09.533Z,20.80
2017-05-28T20:50:36.792Z,20.80
2017-05-28T20:53:04.123Z,20.70
2017-05-28T20:55:31.441Z,20.70
2017-05-28T20:57:58.187Z,20.70
2017-05-28T21:00:24.783Z,20.70
2017-05-28T21:02:51.397Z,20.60
2017-05-28T21:05:17.952Z,20.40
2017-05-28T21:07:45.195Z,20.40
2017-05-28T21:10:12.514Z,20.20
2017-05-28T21:12:39.057Z,20.10
2017-05-28T21:15:06.539Z,20.10
2017-05-28T21:17:33.784Z,20.10
2017-05-28T21:20:00.991Z,20.10
2017-05-28T21:22:28.227Z,20.10
2017-05-28T21:24:55.456Z,20.00
2017-05-28T21:27:22.645Z,19.90
2017-05-28T21:29:49.913Z,19.80
2017-05-28T21:32:17.134Z,19.70
2017-05-28T21:34:44.396Z,19.70
2017-05-28T21:37:11.628Z,19.60
2017-05-28T21:39:38.827Z,19.50
2017-05-28T21:42:06.442Z,19.50
2017-05-28T21:44:33.647Z,19.40
2017-05-28T21:47:00.822Z,19.40
2017-05-28T21:49:28.278Z,19.30
2017-05-28T21:51:55.483Z,19.10
2017-05-28T21:54:22.773Z,19.10
2017-05-28T21:56:50.028Z,19.00
2017-05-28T21:59:17.225Z,19.00
2017-05-28T22:01:44.399Z,18.90
2017-05-28T22:04:11.717Z,18.90
2017-05-28T22:06:38.922Z,19.00
2017-05-28T22:09:06.162Z,19.00
2017-05-28T22:11:33.444Z,18.90
2017-05-28T22:14:00.636Z,18.80
2017-05-28T22:16:27.819Z,18.80
2017-05-28T22:18:55.077Z,18.70
2017-05-28T22:21:22.368Z,18.50
2017-05-28T22:23:49.646Z,18.40
2017-05-28T22:26:16.850Z,18.40
2017-05-28T22:28:44.097Z,18.40
2017-05-28T22:31:11.360Z,18.40
2017-05-28T22:33:38.552Z,18.40
2017-05-28T22:36:05.728Z,18.30
2017-05-28T22:38:32.980Z,18.30
2017-05-28T22:41:00.191Z,18.10
2017-05-28T22:43:27.409Z,18.00
2017-05-28T22:45:54.772Z,18.00
2017-05-28T22:48:21.952Z,17.90
2017-05-28T22:50:49.167Z,17.90
2017-05-28T22:53:16.405Z,17.80
2017-05-28T22:55:43.568Z,17.70
2017-05-28T22:58:10.860Z,17.80
2017-05-28T23:00:38.064Z,17.80
2017-05-28T23:03:05.247Z,17.70
2017-05-28T23:05:32.472Z,17.70
2017-05-28T23:07:59.695Z,17.80
2017-05-28T23:10:26.928Z,17.70
2017-05-28T23:12:54.221Z,17.60
2017-05-28T23:15:21.399Z,17.60
2017-05-28T23:17:48.755Z,17.50
2017-05-28T23:20:15.981Z,17.40
2017-05-28T23:22:43.139Z,17.50
2017-05-28T23:25:10.368Z,17.50
2017-05-28T23:27:37.566Z,17.50
2017-05-28T23:30:04.774Z,17.60
2017-05-28T23:32:32.223Z,17.60
2017-05-28T23:34:59.456Z,17.50
2017-05-28T23:37:26.688Z,17.50
2017-05-28T23:39:53.972Z,17.50
2017-05-28T23:42:21.176Z,17.40
2017-05-28T23:44:48.499Z,17.30
2017-05-28T23:47:15.776Z,17.30
2017-05-28T23:49:42.995Z,17.30
2017-05-28T23:52:10.300Z,17.20
2017-05-28T23:54:37.480Z,17.00
2017-05-28T23:57:04.724Z,16.90
2017-05-28T23:59:31.963Z,16.90
